Time;durP1;ratioP1;P1;durP2;ratioP2;P2;SDS_P1;SDS_P2;PMS_P1;PMS_P2;Temp;Humidity;BMP_temperature;BMP_pressure;BME280_temperature;BME280_humidity;BME280_pressure;Samples;Min_cycle;Max_cycle;Signal;HPM_P1;HPM_P2
2022/03/05 00:00:11;;;;;;;18.93;7.60;;;;;;;;;;5014927;28;20186;-67
2022/03/05 00:02:36;;;;;;;17.10;7.50;;;;;;;;;;5017240;28;20178;-67
2022/03/05 00:05:01;;;;;;;21.00;7.73;;;;;;;;;;5024966;28;20308;-67
2022/03/05 00:07:27;;;;;;;20.17;7.60;;;;;;;;;;5024124;28;20209;-67
2022/03/05 00:09:52;;;;;;;19.00;7.93;;;;;;;;;;5024249;28;20599;-67
2022/03/05 00:12:18;;;;;;;22.37;7.87;;;;;;;;;;5025663;28;20182;-67
2022/03/05 00:14:43;;;;;;;19.43;8.00;;;;;;;;;;5019567;28;20216;-67
2022/03/05 00:17:08;;;;;;;16.47;7.60;;;;;;;;;;5025429;28;20186;-67
2022/03/05 00:19:34;;;;;;;17.73;7.77;;;;;;;;;;5026443;28;20197;-67
2022/03/05 00:22:01;;;;;;;14.50;6.90;;;;;;;;;;5021771;28;20554;-67
2022/03/05 00:24:27;;;;;;;20.17;7.23;;;;;;;;;;5024623;28;20260;-67
2022/03/05 00:26:53;;;;;;;19.20;7.63;;;;;;;;;;5023416;28;20202;-68
2022/03/05 00:29:18;;;;;;;21.30;7.57;;;;;;;;;;5021486;28;20603;-67
2022/03/05 00:31:44;;;;;;;18.17;7.50;;;;;;;;;;5026392;28;20210;-67
2022/03/05 00:34:09;;;;;;;20.00;8.33;;;;;;;;;;5022771;28;20178;-67
2022/03/05 00:36:35;;;;;;;22.50;7.97;;;;;;;;;;5020743;28;20222;-67
2022/03/05 00:39:01;;;;;;;19.27;7.67;;;;;;;;;;5029532;28;20566;-67
2022/03/05 00:41:26;;;;;;;20.20;7.67;;;;;;;;;;5021648;28;20207;-67
2022/03/05 00:43:52;;;;;;;14.93;7.10;;;;;;;;;;5025402;28;20186;-67
2022/03/05 00:46:17;;;;;;;19.13;7.83;;;;;;;;;;5025867;28;20194;-67
2022/03/05 00:48:42;;;;;;;20.23;6.90;;;;;;;;;;5027720;28;20592;-67
2022/03/05 00:51:08;;;;;;;21.67;7.67;;;;;;;;;;5021468;28;20200;-67
2022/03/05 00:53:33;;;;;;;22.07;7.77;;;;;;;;;;5026905;28;20235;-67
2022/03/05 00:55:58;;;;;;;22.30;7.90;;;;;;;;;;5024481;28;20559;-66
2022/03/05 00:58:24;;;;;;;18.13;7.47;;;;;;;;;;5024010;28;20194;-67
2022/03/05 01:00:49;;;;;;;18.90;7.97;;;;;;;;;;5025589;28;20218;-67
2022/03/05 01:03:15;;;;;;;23.73;8.30;;;;;;;;;;5021710;28;20235;-67
2022/03/05 01:05:40;;;;;;;17.13;7.47;;;;;;;;;;5024757;28;20186;-68
2022/03/05 01:08:05;;;;;;;20.20;7.63;;;;;;;;;;5035755;28;20593;-66
2022/03/05 01:10:31;;;;;;;18.37;6.63;;;;;;;;;;5026575;28;20300;-67
2022/03/05 01:12:56;;;;;;;18.33;7.97;;;;;;;;;;5020716;28;20186;-67
2022/03/05 01:15:22;;;;;;;18.03;7.23;;;;;;;;;;5030307;28;20202;-66
2022/03/05 01:17:48;;;;;;;21.33;7.60;;;;;;;;;;5024916;28;20186;-67
2022/03/05 01:20:13;;;;;;;15.73;7.00;;;;;;;;;;5026275;28;20813;-67
2022/03/05 01:22:39;;;;;;;18.27;7.30;;;;;;;;;;5024312;28;20207;-67
2022/03/05 01:25:05;;;;;;;14.27;6.80;;;;;;;;;;5018657;28;20295;-67
2022/03/05 01:27:30;;;;;;;20.87;7.13;;;;;;;;;;5022090;28;20190;-67
2022/03/05 01:29:55;;;;;;;20.47;7.57;;;;;;;;;;5031676;28;20726;-67
2022/03/05 01:32:21;;;;;;;18.90;6.60;;;;;;;;;;5025633;28;20359;-66
2022/03/05 01:34:46;;;;;;;18.37;8.40;;;;;;;;;;5020687;28;20190;-67
2022/03/05 01:37:11;;;;;;;21.53;8.10;;;;;;;;;;5026293;28;20265;-66
2022/03/05 01:39:38;;;;;;;20.83;7.27;;;;;;;;;;5026027;28;20467;-66
2022/03/05 01:42:04;;;;;;;22.47;7.10;;;;;;;;;;5024813;28;20568;-67
2022/03/05 01:44:29;;;;;;;17.70;7.27;;;;;;;;;;5023640;28;20182;-66
2022/03/05 01:46:54;;;;;;;20.07;7.47;;;;;;;;;;5023691;28;20196;-67
2022/03/05 01:49:20;;;;;;;17.17;7.37;;;;;;;;;;5020602;28;20190;-66
2022/03/05 01:51:46;;;;;;;18.53;7.83;;;;;;;;;;5022507;28;20182;-66
2022/03/05 01:54:13;;;;;;;18.63;8.03;;;;;;;;;;5018205;28;20194;-67
2022/03/05 01:56:39;;;;;;;19.50;8.30;;;;;;;;;;5022330;28;20325;-66
2022/03/05 01:59:06;;;;;;;18.97;7.77;;;;;;;;;;5034687;28;20197;-66
2022/03/05 02:01:31;;;;;;;22.80;8.13;;;;;;;;;;5018587;28;20190;-67
2022/03/05 02:03:57;;;;;;;19.70;7.70;;;;;;;;;;5035048;28;20218;-66
2022/03/05 02:06:23;;;;;;;19.10;7.47;;;;;;;;;;5024193;28;20256;-66
2022/03/05 02:08:49;;;;;;;19.30;7.47;;;;;;;;;;5027697;28;20197;-66
2022/03/05 02:11:14;;;;;;;20.80;8.37;;;;;;;;;;5023564;28;20261;-65
2022/03/05 02:13:41;;;;;;;19.00;7.90;;;;;;;;;;5021786;28;20178;-66
2022/03/05 02:16:07;;;;;;;19.73;7.93;;;;;;;;;;5023997;28;20267;-66
2022/03/05 02:18:32;;;;;;;20.60;7.97;;;;;;;;;;5027632;28;20674;-67
2022/03/05 02:20:58;;;;;;;20.17;7.80;;;;;;;;;;5022464;28;20583;-65
2022/03/05 02:23:23;;;;;;;22.27;7.80;;;;;;;;;;5022252;28;20214;-66
2022/03/05 02:25:55;;;;;;;19.80;7.63;;;;;;;;;;5019673;28;20224;-66
2022/03/05 02:28:22;;;;;;;19.13;7.10;;;;;;;;;;5027140;28;20269;-67
2022/03/05 02:30:47;;;;;;;22.23;7.70;;;;;;;;;;5021431;28;20513;-67
2022/03/05 02:33:13;;;;;;;21.40;7.43;;;;;;;;;;5023356;28;20194;-67
2022/03/05 02:35:38;;;;;;;23.63;8.23;;;;;;;;;;5022175;28;20213;-67
2022/03/05 02:38:04;;;;;;;21.57;7.07;;;;;;;;;;5025111;28;20178;-67
2022/03/05 02:40:29;;;;;;;22.93;8.30;;;;;;;;;;5022630;28;20793;-67
2022/03/05 02:42:54;;;;;;;21.77;7.33;;;;;;;;;;5027242;28;20312;-67
2022/03/05 02:45:20;;;;;;;19.90;7.60;;;;;;;;;;5021759;28;20273;-67
2022/03/05 02:47:45;;;;;;;17.90;7.33;;;;;;;;;;5023900;28;20201;-67
2022/03/05 02:50:11;;;;;;;18.13;7.07;;;;;;;;;;5024027;28;20310;-66
2022/03/05 02:52:39;;;;;;;17.77;7.40;;;;;;;;;;5024006;28;20186;-67
2022/03/05 02:55:06;;;;;;;21.10;7.47;;;;;;;;;;5022158;28;20272;-67
2022/03/05 02:57:31;;;;;;;19.43;6.77;;;;;;;;;;5031923;28;20177;-67
2022/03/05 02:59:56;;;;;;;23.13;7.03;;;;;;;;;;5028347;28;20187;-67
2022/03/05 03:02:22;;;;;;;17.40;6.70;;;;;;;;;;5031671;28;20213;-67
2022/03/05 03:04:47;;;;;;;20.50;7.43;;;;;;;;;;5029620;28;21667;-67
2022/03/05 03:07:13;;;;;;;22.50;7.03;;;;;;;;;;5023959;28;20185;-67
2022/03/05 03:09:38;;;;;;;24.17;8.10;;;;;;;;;;5023766;28;20182;-67
2022/03/05 03:12:04;;;;;;;21.57;7.17;;;;;;;;;;5025263;28;20182;-66
2022/03/05 03:14:29;;;;;;;21.60;7.80;;;;;;;;;;5021888;28;20182;-66
2022/03/05 03:16:55;;;;;;;21.23;7.50;;;;;;;;;;5023347;28;20679;-66
2022/03/05 03:19:20;;;;;;;20.83;8.10;;;;;;;;;;5025567;28;20182;-66
2022/03/05 03:21:46;;;;;;;18.07;6.87;;;;;;;;;;5021471;28;20459;-66
2022/03/05 03:24:11;;;;;;;19.43;7.60;;;;;;;;;;5022840;28;20195;-66
2022/03/05 03:26:36;;;;;;;19.73;7.10;;;;;;;;;;5027070;28;20170;-66
2022/03/05 03:29:02;;;;;;;19.90;8.27;;;;;;;;;;5021756;28;20194;-66
2022/03/05 03:31:27;;;;;;;20.20;6.73;;;;;;;;;;5020553;28;20496;-66
2022/03/05 03:33:52;;;;;;;20.60;8.33;;;;;;;;;;5020293;28;20719;-66
2022/03/05 03:36:18;;;;;;;21.97;6.97;;;;;;;;;;5014077;28;20267;-66
2022/03/05 03:38:43;;;;;;;19.37;7.17;;;;;;;;;;5026351;28;20209;-67
2022/03/05 03:41:09;;;;;;;19.17;6.97;;;;;;;;;;5024151;28;20209;-66
2022/03/05 03:43:34;;;;;;;21.67;7.83;;;;;;;;;;5028043;28;20182;-66
2022/03/05 03:46:00;;;;;;;18.87;7.30;;;;;;;;;;5027835;28;20630;-66
2022/03/05 03:48:25;;;;;;;17.67;6.10;;;;;;;;;;5027715;28;20190;-66
2022/03/05 03:50:50;;;;;;;19.47;7.10;;;;;;;;;;5029364;28;20260;-66
2022/03/05 03:53:16;;;;;;;16.57;7.10;;;;;;;;;;5026000;28;20194;-66
2022/03/05 03:55:41;;;;;;;20.00;7.40;;;;;;;;;;5025579;28;20680;-67
2022/03/05 03:58:07;;;;;;;20.90;7.70;;;;;;;;;;5030787;28;20177;-66
2022/03/05 04:00:33;;;;;;;18.90;7.63;;;;;;;;;;5025862;28;20269;-66
2022/03/05 04:02:59;;;;;;;22.83;8.10;;;;;;;;;;5020689;28;20702;-66
2022/03/05 04:05:25;;;;;;;17.37;7.27;;;;;;;;;;5026452;28;20187;-67
2022/03/05 04:10:34;;;;;;;18.37;7.17;;;;;;;;;;5024832;28;20205;-66
2022/03/05 04:12:59;;;;;;;19.77;7.27;;;;;;;;;;5028576;28;21550;-66
2022/03/05 04:15:25;;;;;;;16.37;6.63;;;;;;;;;;5026781;28;20242;-66
2022/03/05 04:17:50;;;;;;;19.93;6.83;;;;;;;;;;5029785;28;20194;-66
2022/03/05 04:20:16;;;;;;;18.40;7.17;;;;;;;;;;5021272;28;20689;-66
2022/03/05 04:22:41;;;;;;;20.40;6.90;;;;;;;;;;5024334;28;20266;-66
2022/03/05 04:25:07;;;;;;;21.73;6.37;;;;;;;;;;5024569;28;20190;-66
2022/03/05 04:27:33;;;;;;;14.43;5.90;;;;;;;;;;5019192;28;20190;-66
2022/03/05 04:29:58;;;;;;;19.43;7.40;;;;;;;;;;5021983;28;20311;-66
2022/03/05 04:32:24;;;;;;;17.30;6.90;;;;;;;;;;5021606;28;20250;-66
2022/03/05 04:34:49;;;;;;;19.73;7.10;;;;;;;;;;5022608;28;20194;-65
2022/03/05 04:37:14;;;;;;;19.93;7.47;;;;;;;;;;5020317;28;20218;-66
2022/03/05 04:39:40;;;;;;;17.83;7.40;;;;;;;;;;5029144;28;20998;-66
2022/03/05 04:42:05;;;;;;;18.73;6.97;;;;;;;;;;5027535;28;20181;-65
2022/03/05 04:44:30;;;;;;;22.37;7.90;;;;;;;;;;5021790;28;20290;-66
2022/03/05 04:46:56;;;;;;;19.60;7.23;;;;;;;;;;5026149;28;20713;-66
2022/03/05 04:49:22;;;;;;;20.87;7.07;;;;;;;;;;5023372;28;20693;-66
2022/03/05 04:51:47;;;;;;;23.60;7.40;;;;;;;;;;5023717;28;20200;-67
2022/03/05 04:54:13;;;;;;;17.90;6.27;;;;;;;;;;5022924;28;20187;-67
2022/03/05 04:56:38;;;;;;;22.87;7.17;;;;;;;;;;5027533;28;20194;-67
2022/03/05 04:59:04;;;;;;;21.20;7.27;;;;;;;;;;5021864;28;20236;-67
2022/03/05 05:01:29;;;;;;;21.97;7.57;;;;;;;;;;5025549;28;20174;-66
2022/03/05 05:03:55;;;;;;;21.37;7.80;;;;;;;;;;5022652;28;20585;-67
2022/03/05 05:06:20;;;;;;;22.57;7.43;;;;;;;;;;5021620;28;20175;-67
2022/03/05 05:08:46;;;;;;;21.13;7.17;;;;;;;;;;5031203;28;20206;-67
2022/03/05 05:11:11;;;;;;;19.37;7.67;;;;;;;;;;5020602;28;20657;-67
2022/03/05 05:13:38;;;;;;;20.27;7.10;;;;;;;;;;5020438;28;20178;-67
2022/03/05 05:16:04;;;;;;;24.67;7.97;;;;;;;;;;5018139;28;20627;-67
2022/03/05 05:18:29;;;;;;;24.60;7.93;;;;;;;;;;5021605;28;20182;-67
2022/03/05 05:20:54;;;;;;;19.67;7.17;;;;;;;;;;5023770;28;20248;-66
2022/03/05 05:23:20;;;;;;;25.37;8.00;;;;;;;;;;5022440;28;20210;-67
2022/03/05 05:25:45;;;;;;;19.30;6.93;;;;;;;;;;5028773;28;20178;-67
2022/03/05 05:28:11;;;;;;;20.73;7.17;;;;;;;;;;5019348;28;20272;-67
2022/03/05 05:30:36;;;;;;;27.67;8.20;;;;;;;;;;5025436;28;20579;-67
2022/03/05 05:33:02;;;;;;;28.17;7.57;;;;;;;;;;5015960;28;20193;-67
2022/03/05 05:35:27;;;;;;;23.33;7.07;;;;;;;;;;5023450;28;20476;-67
2022/03/05 05:37:53;;;;;;;20.73;7.77;;;;;;;;;;5021053;28;20186;-67
2022/03/05 05:40:18;;;;;;;22.60;6.83;;;;;;;;;;5025895;28;20238;-67
2022/03/05 05:42:44;;;;;;;24.03;6.90;;;;;;;;;;5021882;28;20228;-67
2022/03/05 05:45:09;;;;;;;26.60;8.37;;;;;;;;;;5024773;28;20232;-67
2022/03/05 05:47:35;;;;;;;25.17;7.67;;;;;;;;;;5027279;28;20182;-67
2022/03/05 05:50:02;;;;;;;18.80;6.70;;;;;;;;;;5022772;28;20224;-67
2022/03/05 05:52:27;;;;;;;22.57;6.73;;;;;;;;;;5023326;28;20243;-66
2022/03/05 05:54:52;;;;;;;24.67;7.90;;;;;;;;;;5023103;28;20186;-67
2022/03/05 05:57:18;;;;;;;22.63;7.87;;;;;;;;;;5032375;28;23381;-67
2022/03/05 05:59:43;;;;;;;22.47;7.70;;;;;;;;;;5027241;28;20631;-67
2022/03/05 06:02:08;;;;;;;24.23;6.60;;;;;;;;;;5026652;28;20666;-67
2022/03/05 06:04:34;;;;;;;25.53;6.83;;;;;;;;;;5025587;28;20268;-66
2022/03/05 06:07:00;;;;;;;27.43;7.97;;;;;;;;;;5027416;28;20596;-67
2022/03/05 06:09:25;;;;;;;22.47;7.47;;;;;;;;;;5024126;28;20563;-67
2022/03/05 06:11:51;;;;;;;25.53;6.83;;;;;;;;;;5029217;28;20240;-66
2022/03/05 06:14:17;;;;;;;35.60;8.33;;;;;;;;;;5029143;28;20228;-67
2022/03/05 06:16:42;;;;;;;25.37;7.60;;;;;;;;;;5035472;28;20216;-67
2022/03/05 06:19:08;;;;;;;26.10;8.17;;;;;;;;;;5028472;28;20736;-67
2022/03/05 06:21:34;;;;;;;23.17;7.80;;;;;;;;;;5029437;28;20220;-67
2022/03/05 06:23:59;;;;;;;29.07;8.03;;;;;;;;;;5027961;28;20221;-67
2022/03/05 06:26:25;;;;;;;19.27;7.17;;;;;;;;;;5030536;28;20761;-67
2022/03/05 06:28:50;;;;;;;21.70;6.73;;;;;;;;;;5029791;28;20581;-67
2022/03/05 06:31:15;;;;;;;25.57;8.20;;;;;;;;;;5030559;28;20288;-68
2022/03/05 06:33:43;;;;;;;28.63;8.33;;;;;;;;;;5030595;28;20182;-67
2022/03/05 06:36:08;;;;;;;25.07;7.93;;;;;;;;;;5028855;28;20221;-68
2022/03/05 06:38:33;;;;;;;21.00;7.90;;;;;;;;;;5029869;28;20197;-67
2022/03/05 06:40:59;;;;;;;24.87;8.00;;;;;;;;;;5029061;28;20190;-67
2022/03/05 06:43:24;;;;;;;27.83;8.00;;;;;;;;;;5036776;28;20218;-68
2022/03/05 06:45:49;;;;;;;25.97;8.10;;;;;;;;;;5030452;28;20182;-68
2022/03/05 06:48:15;;;;;;;29.57;8.53;;;;;;;;;;5041473;28;20677;-68
2022/03/05 06:50:40;;;;;;;23.73;7.80;;;;;;;;;;5030286;28;20185;-68
2022/03/05 06:53:06;;;;;;;28.63;9.27;;;;;;;;;;5037520;28;20274;-67
2022/03/05 06:55:31;;;;;;;27.40;9.13;;;;;;;;;;5027086;28;20221;-67
2022/03/05 06:57:57;;;;;;;27.13;8.47;;;;;;;;;;5040006;28;20659;-68
2022/03/05 07:00:22;;;;;;;28.90;8.80;;;;;;;;;;5030550;28;20725;-68
2022/03/05 07:02:48;;;;;;;31.90;8.83;;;;;;;;;;5037697;28;20620;-68
2022/03/05 07:05:14;;;;;;;36.17;9.53;;;;;;;;;;5029929;28;20193;-67
2022/03/05 07:07:39;;;;;;;21.53;7.93;;;;;;;;;;5032257;28;20177;-68
2022/03/05 07:10:06;;;;;;;28.97;9.17;;;;;;;;;;5032687;28;20212;-68
2022/03/05 07:12:31;;;;;;;30.53;8.43;;;;;;;;;;5030793;28;20190;-67
2022/03/05 07:14:58;;;;;;;28.07;9.70;;;;;;;;;;5037455;28;20473;-67
2022/03/05 07:17:24;;;;;;;27.97;9.73;;;;;;;;;;5038302;28;20216;-68
2022/03/05 07:19:50;;;;;;;31.60;10.33;;;;;;;;;;5039341;28;20712;-67
2022/03/05 07:22:15;;;;;;;30.80;10.17;;;;;;;;;;5031035;28;20197;-68
2022/03/05 07:24:40;;;;;;;35.07;11.27;;;;;;;;;;5037870;28;20177;-68
2022/03/05 07:27:06;;;;;;;33.00;10.33;;;;;;;;;;5037724;28;20193;-68
2022/03/05 07:29:31;;;;;;;33.30;10.63;;;;;;;;;;5027087;28;20237;-68
2022/03/05 07:31:57;;;;;;;30.53;9.70;;;;;;;;;;5025044;28;20205;-69
2022/03/05 07:34:22;;;;;;;33.23;10.47;;;;;;;;;;5017430;28;20268;-68
2022/03/05 07:36:47;;;;;;;31.10;10.37;;;;;;;;;;5020007;28;20209;-67
2022/03/05 07:39:13;;;;;;;33.77;11.23;;;;;;;;;;5026911;28;20192;-67
2022/03/05 07:41:38;;;;;;;31.40;10.93;;;;;;;;;;5033017;28;20185;-68
2022/03/05 07:44:05;;;;;;;33.90;11.07;;;;;;;;;;5037757;28;20192;-67
2022/03/05 07:46:32;;;;;;;33.40;11.23;;;;;;;;;;5028809;28;20242;-67
2022/03/05 07:48:58;;;;;;;39.13;12.63;;;;;;;;;;5038242;28;20192;-67
2022/03/05 07:51:23;;;;;;;35.00;12.07;;;;;;;;;;5026158;28;20582;-67
2022/03/05 07:53:48;;;;;;;37.17;12.03;;;;;;;;;;5031678;28;20257;-68
2022/03/05 07:56:13;;;;;;;34.80;12.27;;;;;;;;;;5024281;28;20239;-68
2022/03/05 07:58:39;;;;;;;35.50;12.20;;;;;;;;;;5033374;28;20277;-67
2022/03/05 08:01:04;;;;;;;33.27;11.67;;;;;;;;;;5027101;28;20717;-68
2022/03/05 08:03:30;;;;;;;32.37;11.30;;;;;;;;;;5027578;28;20660;-66
2022/03/05 08:05:56;;;;;;;33.63;12.03;;;;;;;;;;5037426;28;20531;-68
2022/03/05 08:08:21;;;;;;;36.87;12.47;;;;;;;;;;5031152;28;20262;-68
2022/03/05 08:10:47;;;;;;;34.63;12.63;;;;;;;;;;5036047;28;20619;-67
2022/03/05 08:13:12;;;;;;;39.23;13.73;;;;;;;;;;5036650;28;20748;-67
2022/03/05 08:15:37;;;;;;;33.93;12.80;;;;;;;;;;5036686;28;20657;-67
2022/03/05 08:18:03;;;;;;;33.13;12.10;;;;;;;;;;5027986;28;20193;-67
2022/03/05 08:20:31;;;;;;;35.93;12.27;;;;;;;;;;5035394;28;20183;-67
2022/03/05 08:22:57;;;;;;;35.90;12.27;;;;;;;;;;5033126;28;20178;-68
2022/03/05 08:25:23;;;;;;;33.67;12.13;;;;;;;;;;5040483;28;20232;-68
2022/03/05 08:27:48;;;;;;;31.70;11.97;;;;;;;;;;5031804;28;20653;-67
2022/03/05 08:30:15;;;;;;;40.17;14.57;;;;;;;;;;5041122;28;20554;-67
2022/03/05 08:32:41;;;;;;;34.43;13.60;;;;;;;;;;5027559;28;20186;-67
2022/03/05 08:35:08;;;;;;;35.13;12.73;;;;;;;;;;5041601;28;20184;-67
2022/03/05 08:37:34;;;;;;;35.20;13.47;;;;;;;;;;5027300;28;20182;-67
2022/03/05 08:39:59;;;;;;;38.50;13.40;;;;;;;;;;5037415;28;20622;-67
2022/03/05 08:42:25;;;;;;;34.53;11.70;;;;;;;;;;5024212;28;20193;-67
2022/03/05 08:44:50;;;;;;;36.80;12.63;;;;;;;;;;5026156;28;20205;-67
2022/03/05 08:47:16;;;;;;;32.50;12.33;;;;;;;;;;5027276;28;20214;-66
2022/03/05 08:49:41;;;;;;;31.13;12.63;;;;;;;;;;5028905;28;20216;-68
2022/03/05 08:52:07;;;;;;;33.83;12.60;;;;;;;;;;5031733;28;20655;-66
2022/03/05 08:54:32;;;;;;;30.57;12.87;;;;;;;;;;5025823;28;20195;-66
2022/03/05 08:56:58;;;;;;;29.67;12.10;;;;;;;;;;5029166;28;20205;-67
2022/03/05 08:59:23;;;;;;;34.90;12.77;;;;;;;;;;5025640;28;20332;-66
2022/03/05 09:01:49;;;;;;;37.10;12.70;;;;;;;;;;5028314;28;20206;-66
2022/03/05 09:04:15;;;;;;;32.23;12.33;;;;;;;;;;5026000;28;20648;-66
2022/03/05 09:06:40;;;;;;;29.97;12.23;;;;;;;;;;5040496;28;20513;-67
2022/03/05 09:09:07;;;;;;;34.37;12.77;;;;;;;;;;5018758;28;20191;-67
2022/03/05 09:11:34;;;;;;;31.97;11.97;;;;;;;;;;5030754;28;20508;-66
2022/03/05 09:13:59;;;;;;;34.70;13.00;;;;;;;;;;5028241;28;20193;-66
2022/03/05 09:16:25;;;;;;;33.17;13.40;;;;;;;;;;5041974;28;20206;-67
2022/03/05 09:18:51;;;;;;;34.40;12.90;;;;;;;;;;5022238;28;20186;-66
2022/03/05 09:21:16;;;;;;;38.33;13.97;;;;;;;;;;5024174;28;20737;-66
2022/03/05 09:23:41;;;;;;;34.00;11.90;;;;;;;;;;5022969;28;20618;-66
2022/03/05 09:26:07;;;;;;;31.53;12.50;;;;;;;;;;5032204;28;20665;-66
2022/03/05 09:28:32;;;;;;;33.93;12.90;;;;;;;;;;5023539;28;20277;-67
2022/03/05 09:30:58;;;;;;;29.60;11.93;;;;;;;;;;5031106;28;20210;-67
2022/03/05 09:33:24;;;;;;;35.13;12.90;;;;;;;;;;5024762;28;20251;-66
2022/03/05 09:35:50;;;;;;;41.90;13.80;;;;;;;;;;5025163;28;20249;-67
2022/03/05 09:38:15;;;;;;;36.50;13.50;;;;;;;;;;5027522;28;20673;-67
2022/03/05 09:40:41;;;;;;;35.70;13.47;;;;;;;;;;5025047;28;20212;-67
2022/03/05 09:43:07;;;;;;;36.00;13.27;;;;;;;;;;5020161;28;20311;-67
2022/03/05 09:45:33;;;;;;;35.93;14.03;;;;;;;;;;5027393;28;20270;-67
2022/03/05 09:47:59;;;;;;;30.57;12.47;;;;;;;;;;5021736;28;20276;-67
2022/03/05 09:50:28;;;;;;;32.60;13.40;;;;;;;;;;5031790;28;20221;-67
2022/03/05 09:52:54;;;;;;;34.53;14.10;;;;;;;;;;5037742;28;20260;-67
2022/03/05 09:55:20;;;;;;;35.97;14.30;;;;;;;;;;5025550;28;20725;-67
2022/03/05 09:57:45;;;;;;;36.63;13.23;;;;;;;;;;5025674;28;20202;-67
2022/03/05 10:00:10;;;;;;;37.93;14.23;;;;;;;;;;5023651;28;20185;-67
2022/03/05 10:02:36;;;;;;;32.07;13.73;;;;;;;;;;5029592;28;20182;-67
2022/03/05 10:05:20;;;;;;;36.17;13.97;;;;;;;;;;5024357;28;20183;-68
2022/03/05 10:08:15;;;;;;;35.10;13.63;;;;;;;;;;5026620;28;20194;-68
2022/03/05 10:10:43;;;;;;;34.20;13.97;;;;;;;;;;5020338;28;20175;-67
2022/03/05 10:13:32;;;;;;;30.57;11.33;;;;;;;;;;5025379;28;20182;-67
2022/03/05 10:16:00;;;;;;;37.57;13.93;;;;;;;;;;5024772;28;20597;-67
2022/03/05 10:18:33;;;;;;;34.00;14.57;;;;;;;;;;5022607;28;20288;-67
2022/03/05 10:21:01;;;;;;;38.27;14.67;;;;;;;;;;5022167;28;20170;-67
2022/03/05 10:23:30;;;;;;;34.60;12.90;;;;;;;;;;5022159;28;20186;-67
2022/03/05 10:25:55;;;;;;;32.70;13.00;;;;;;;;;;5037371;28;20185;-67
2022/03/05 10:28:26;;;;;;;32.00;13.77;;;;;;;;;;5020066;28;20186;-67
2022/03/05 10:30:54;;;;;;;39.43;14.60;;;;;;;;;;5022917;28;20202;-67
2022/03/05 10:33:47;;;;;;;29.13;13.37;;;;;;;;;;5022721;28;20269;-67
2022/03/05 10:36:19;;;;;;;36.73;14.53;;;;;;;;;;5015906;28;20248;-67
2022/03/05 10:38:53;;;;;;;34.93;13.30;;;;;;;;;;5020389;28;20196;-67
2022/03/05 10:41:30;;;;;;;33.80;14.23;;;;;;;;;;5022364;28;20661;-67
2022/03/05 10:44:17;;;;;;;35.77;14.30;;;;;;;;;;5024183;28;20189;-67
2022/03/05 10:47:03;;;;;;;32.17;13.43;;;;;;;;;;5024736;28;20175;-66
2022/03/05 10:49:36;;;;;;;34.33;14.30;;;;;;;;;;5019193;28;20188;-67
2022/03/05 10:52:09;;;;;;;31.73;13.77;;;;;;;;;;5025055;28;20273;-68
2022/03/05 10:54:44;;;;;;;35.17;14.33;;;;;;;;;;5019930;28;20186;-68
2022/03/05 10:57:11;;;;;;;37.23;13.43;;;;;;;;;;5016721;28;20205;-69
2022/03/05 10:59:39;;;;;;;32.87;13.77;;;;;;;;;;5019746;28;20666;-68
2022/03/05 11:02:07;;;;;;;36.17;14.70;;;;;;;;;;5026773;28;20198;-68
2022/03/05 11:04:35;;;;;;;36.83;13.63;;;;;;;;;;5037523;28;20248;-68
2022/03/05 11:07:01;;;;;;;35.10;14.27;;;;;;;;;;5023511;28;20289;-68
2022/03/05 11:09:28;;;;;;;36.70;13.70;;;;;;;;;;5031934;28;20634;-68
2022/03/05 11:11:54;;;;;;;35.63;14.43;;;;;;;;;;5023817;28;20190;-68
2022/03/05 11:14:19;;;;;;;31.50;13.07;;;;;;;;;;5023347;28;20197;-68
2022/03/05 11:16:45;;;;;;;33.43;14.60;;;;;;;;;;5021342;28;20209;-68
2022/03/05 11:19:11;;;;;;;35.40;13.93;;;;;;;;;;5028828;28;20189;-68
2022/03/05 11:21:36;;;;;;;33.07;13.67;;;;;;;;;;5033107;28;20724;-67
2022/03/05 11:24:04;;;;;;;36.50;14.70;;;;;;;;;;5033208;28;20197;-67
2022/03/05 11:26:31;;;;;;;32.07;13.33;;;;;;;;;;5027174;28;20181;-67
2022/03/05 11:28:57;;;;;;;36.33;14.93;;;;;;;;;;5028802;28;20194;-66
2022/03/05 11:31:29;;;;;;;37.93;15.53;;;;;;;;;;5032356;28;20250;-66
2022/03/05 11:33:54;;;;;;;34.23;14.40;;;;;;;;;;5028847;28;20208;-67
2022/03/05 11:36:27;;;;;;;35.53;14.93;;;;;;;;;;5037569;28;20198;-67
2022/03/05 11:39:12;;;;;;;32.33;13.90;;;;;;;;;;5021895;28;20216;-68
2022/03/05 11:42:01;;;;;;;34.83;14.50;;;;;;;;;;5033004;28;20263;-67
2022/03/05 11:44:29;;;;;;;33.50;14.40;;;;;;;;;;5024285;28;20186;-67
2022/03/05 11:47:24;;;;;;;39.70;15.03;;;;;;;;;;5034268;28;20197;-67
2022/03/05 11:49:58;;;;;;;34.07;13.50;;;;;;;;;;5035452;28;20198;-67
2022/03/05 11:52:39;;;;;;;35.27;14.87;;;;;;;;;;5026300;28;20228;-67
2022/03/05 11:55:11;;;;;;;36.03;15.73;;;;;;;;;;5037014;28;20288;-67
2022/03/05 11:58:09;;;;;;;34.13;14.17;;;;;;;;;;5029205;28;20202;-67
2022/03/05 12:00:35;;;;;;;36.33;14.80;;;;;;;;;;5033112;28;20194;-66
2022/03/05 12:03:02;;;;;;;31.23;14.27;;;;;;;;;;5032386;28;20218;-66
2022/03/05 12:05:52;;;;;;;31.07;14.10;;;;;;;;;;5030647;28;20309;-67
2022/03/05 12:08:24;;;;;;;30.33;14.17;;;;;;;;;;5032117;28;20555;-67
2022/03/05 12:11:22;;;;;;;33.57;14.63;;;;;;;;;;5026542;28;20202;-67
2022/03/05 12:13:57;;;;;;;32.57;14.67;;;;;;;;;;5049264;28;20264;-67
2022/03/05 12:16:28;;;;;;;32.20;13.83;;;;;;;;;;5025790;28;20209;-67
2022/03/05 12:18:56;;;;;;;31.13;14.07;;;;;;;;;;5035451;28;20198;-66
2022/03/05 12:21:28;;;;;;;32.77;13.90;;;;;;;;;;5026677;28;20206;-66
2022/03/05 12:24:08;;;;;;;28.70;13.00;;;;;;;;;;5036681;28;20296;-66
2022/03/05 12:26:40;;;;;;;33.90;13.60;;;;;;;;;;5030656;28;20213;-66
2022/03/05 12:29:06;;;;;;;30.30;13.37;;;;;;;;;;5037626;28;20227;-66
2022/03/05 12:31:32;;;;;;;29.33;13.47;;;;;;;;;;5028930;28;20626;-66
2022/03/05 12:33:58;;;;;;;30.33;14.23;;;;;;;;;;5038180;28;21348;-67
2022/03/05 12:36:23;;;;;;;36.07;13.87;;;;;;;;;;5031601;28;20518;-67
2022/03/05 12:39:00;;;;;;;30.30;14.10;;;;;;;;;;5035981;28;20186;-66
2022/03/05 12:41:27;;;;;;;30.87;13.30;;;;;;;;;;5033588;28;20189;-67
2022/03/05 12:43:56;;;;;;;29.27;13.00;;;;;;;;;;5033467;28;20189;-67
2022/03/05 12:46:22;;;;;;;26.37;12.43;;;;;;;;;;5030689;28;20523;-67
2022/03/05 12:48:47;;;;;;;28.63;13.20;;;;;;;;;;5031059;28;20202;-67
2022/03/05 12:51:13;;;;;;;26.43;12.87;;;;;;;;;;5030623;28;20195;-67
2022/03/05 12:53:40;;;;;;;30.67;12.73;;;;;;;;;;5029068;28;20542;-67
2022/03/05 12:56:06;;;;;;;27.57;12.27;;;;;;;;;;5036500;28;20336;-67
2022/03/05 12:58:37;;;;;;;29.60;12.57;;;;;;;;;;5027217;28;20277;-68
2022/03/05 13:01:05;;;;;;;26.73;12.63;;;;;;;;;;5031952;28;20557;-67
2022/03/05 13:03:31;;;;;;;28.43;13.40;;;;;;;;;;5028289;28;20325;-66
2022/03/05 13:05:58;;;;;;;29.73;12.65;;;;;;;;;;5034150;28;20174;-67
2022/03/05 13:08:25;;;;;;;28.55;12.57;;;;;;;;;;5023180;28;20273;-67
2022/03/05 13:11:06;;;;;;;26.10;11.90;;;;;;;;;;5035254;28;20297;-67
2022/03/05 13:13:34;;;;;;;30.65;13.57;;;;;;;;;;5024438;28;20224;-67
2022/03/05 13:16:00;;;;;;;28.73;12.88;;;;;;;;;;5026511;28;20276;-67
2022/03/05 13:18:26;;;;;;;29.55;12.57;;;;;;;;;;5028317;28;20190;-67
2022/03/05 13:20:52;;;;;;;26.30;11.38;;;;;;;;;;5033812;28;20240;-67
2022/03/05 13:23:19;;;;;;;30.15;13.27;;;;;;;;;;5027896;28;20262;-67
2022/03/05 13:25:48;;;;;;;27.40;12.07;;;;;;;;;;5027339;28;20186;-67
2022/03/05 13:28:16;;;;;;;27.38;13.02;;;;;;;;;;5023868;28;20545;-67
2022/03/05 13:30:43;;;;;;;26.40;13.00;;;;;;;;;;5030622;28;20214;-67
2022/03/05 13:33:09;;;;;;;28.10;12.40;;;;;;;;;;5025202;28;20243;-67
2022/03/05 13:35:42;;;;;;;28.93;13.03;;;;;;;;;;5032846;28;20218;-67
2022/03/05 13:38:25;;;;;;;26.00;12.50;;;;;;;;;;5031465;28;20272;-67
2022/03/05 13:40:50;;;;;;;27.23;11.73;;;;;;;;;;5026663;28;20223;-67
2022/03/05 13:43:20;;;;;;;27.67;12.73;;;;;;;;;;5031551;28;20193;-67
2022/03/05 13:45:46;;;;;;;26.10;12.67;;;;;;;;;;5028848;28;20281;-66
2022/03/05 13:48:11;;;;;;;30.63;13.37;;;;;;;;;;5037542;28;20296;-67
2022/03/05 13:50:40;;;;;;;28.17;13.37;;;;;;;;;;5028173;28;20304;-67
2022/03/05 13:53:05;;;;;;;30.93;14.10;;;;;;;;;;5040989;28;20186;-67
2022/03/05 13:55:31;;;;;;;29.17;12.40;;;;;;;;;;5026815;28;20526;-66
2022/03/05 13:57:58;;;;;;;25.20;12.10;;;;;;;;;;5039113;28;20292;-67
2022/03/05 14:00:26;;;;;;;26.97;11.57;;;;;;;;;;5030237;28;20194;-67
2022/03/05 14:02:52;;;;;;;25.70;11.53;;;;;;;;;;5035584;28;20190;-67
2022/03/05 14:05:23;;;;;;;26.57;12.70;;;;;;;;;;5028914;28;20238;-67
2022/03/05 14:07:50;;;;;;;25.60;12.80;;;;;;;;;;5038860;28;20263;-67
2022/03/05 14:10:20;;;;;;;28.37;11.77;;;;;;;;;;5019209;28;20202;-67
2022/03/05 14:12:50;;;;;;;25.87;12.40;;;;;;;;;;5037776;28;20193;-66
2022/03/05 14:15:17;;;;;;;24.83;12.18;;;;;;;;;;5033053;28;20471;-66
2022/03/05 14:17:47;;;;;;;28.03;12.63;;;;;;;;;;5023673;28;20300;-66
2022/03/05 14:20:28;;;;;;;24.93;11.63;;;;;;;;;;5022703;28;20205;-67
2022/03/05 14:23:06;;;;;;;24.80;12.23;;;;;;;;;;5027239;28;20295;-66
2022/03/05 14:25:37;;;;;;;29.50;12.90;;;;;;;;;;5032733;28;20177;-67